Time;durP1;ratioP1;P1;durP2;ratioP2;P2;SDS_P1;SDS_P2;PMS_P1;PMS_P2;Temp;Humidity;BMP_temperature;BMP_pressure;BME280_temperature;BME280_humidity;BME280_pressure;Samples;Min_cycle;Max_cycle;Signal;HPM_P1;HPM_P2
2024/01/24 00:04:31;;;;;;;8.70;2.10;;;;;;;9.65;96.21;99882.72;7278745;40;20260;31
2024/01/24 00:09:51;;;;;;;6.15;2.15;;;;;;;9.78;95.87;99884.13;7204675;40;20240;31
2024/01/24 00:15:27;;;;;;;7.55;2.35;;;;;;;9.82;95.78;99901.69;7255328;40;20542;31
2024/01/24 00:21:02;;;;;;;10.35;2.10;;;;;;;9.91;95.07;99898.12;7329492;39;20399;31
2024/01/24 00:26:22;;;;;;;6.70;2.05;;;;;;;10.04;94.85;99899.66;7334784;39;20256;31
2024/01/24 00:31:56;;;;;;;4.40;2.10;;;;;;;10.07;94.96;99889.44;7327874;39;20369;31
2024/01/24 00:37:31;;;;;;;7.00;2.20;;;;;;;10.16;94.49;99856.25;7298563;39;20236;31
2024/01/24 00:43:06;;;;;;;6.35;2.00;;;;;;;10.20;94.02;99868.44;7267241;39;20343;31
2024/01/24 00:48:43;;;;;;;5.63;1.80;;;;;;;10.27;94.04;99849.81;7270644;39;20370;31
2024/01/24 00:54:19;;;;;;;5.10;2.07;;;;;;;10.36;93.66;99843.53;7271454;39;20237;31
2024/01/24 00:59:39;;;;;;;6.25;2.10;;;;;;;10.43;93.24;99854.56;7238808;40;20256;31
2024/01/24 01:05:15;;;;;;;10.80;1.90;;;;;;;10.50;92.60;99848.44;7251934;40;20246;31
2024/01/24 01:10:35;;;;;;;4.60;1.60;;;;;;;10.55;92.60;99853.38;7246229;40;20245;31
2024/01/24 01:15:55;;;;;;;8.00;1.73;;;;;;;10.61;92.13;99871.66;7289151;39;20265;31
2024/01/24 01:21:31;;;;;;;6.60;2.60;;;;;;;10.54;92.60;99847.13;7303120;39;20325;31
2024/01/24 01:26:52;;;;;;;5.77;2.37;;;;;;;10.58;92.68;99869.22;7326368;39;20411;31
2024/01/24 01:32:12;;;;;;;5.57;2.10;;;;;;;10.61;91.90;99848.25;7358137;39;20264;31
2024/01/24 01:37:48;;;;;;;5.66;1.62;;;;;;;10.56;92.79;99833.50;7328135;39;21513;31
2024/01/24 01:43:25;;;;;;;4.60;1.90;;;;;;;10.54;93.18;99824.72;7333684;39;20244;31
2024/01/24 01:49:00;;;;;;;2.95;1.60;;;;;;;10.68;92.33;99851.16;7360480;39;20255;31
2024/01/24 01:54:36;;;;;;;6.95;1.90;;;;;;;10.65;92.64;99841.53;7327918;39;20268;31
2024/01/24 02:00:11;;;;;;;6.77;1.80;;;;;;;10.73;92.92;99819.22;7297656;39;20353;31
2024/01/24 02:05:46;;;;;;;5.80;1.97;;;;;;;10.74;92.89;99823.59;7286706;39;20316;31
2024/01/24 02:11:23;;;;;;;3.50;1.60;;;;;;;10.79;92.18;99824.81;7268984;40;20342;31
2024/01/24 02:16:43;;;;;;;7.83;2.07;;;;;;;10.86;93.26;99846.66;7228254;40;20252;31
2024/01/24 02:22:19;;;;;;;3.00;1.50;;;;;;;10.88;93.28;99847.34;7315263;39;20300;31
2024/01/24 02:27:55;;;;;;;4.25;2.20;;;;;;;10.87;93.04;99809.75;7329046;39;20546;31
2024/01/24 02:33:31;;;;;;;5.83;1.77;;;;;;;10.87;93.56;99836.72;7327716;39;20369;31
2024/01/24 02:44:09;;;;;;;3.50;1.73;;;;;;;10.92;94.18;99810.13;7336443;39;20273;31
2024/01/24 02:49:45;;;;;;;4.40;1.20;;;;;;;10.93;94.99;99823.44;7381677;39;20262;31
2024/01/24 03:05:51;;;;;;;2.57;1.30;;;;;;;10.98;96.77;99806.81;7367858;39;20259;31
2024/01/24 03:16:31;;;;;;;3.30;1.23;;;;;;;11.01;96.85;99771.44;7341931;39;20248;31
2024/01/24 03:22:07;;;;;;;2.27;1.23;;;;;;;11.09;97.26;99866.78;7338399;39;20291;31
2024/01/24 03:32:47;;;;;;;2.83;1.50;;;;;;;11.15;97.15;99808.66;7358186;39;20272;31
2024/01/24 03:43:24;;;;;;;5.20;1.40;;;;;;;11.21;96.96;99786.44;7326631;39;21379;31
2024/01/24 03:48:59;;;;;;;2.97;1.50;;;;;;;11.21;96.99;99792.69;7356915;39;20280;31
2024/01/24 03:59:41;;;;;;;3.33;1.33;;;;;;;11.32;96.37;99796.97;7297299;39;20257;31
2024/01/24 04:05:03;;;;;;;2.65;1.40;;;;;;;11.38;96.36;99828.75;7321296;39;20264;31
2024/01/24 04:10:37;;;;;;;5.10;1.50;;;;;;;11.41;96.63;99812.25;7324972;39;20490;31
2024/01/24 04:21:19;;;;;;;3.75;1.40;;;;;;;11.48;96.12;99818.72;7331901;39;20860;31
2024/01/24 04:26:54;;;;;;;5.93;1.80;;;;;;;11.52;95.82;99793.09;7316615;39;20240;31
2024/01/24 04:32:15;;;;;;;2.60;1.30;;;;;;;11.60;96.31;99763.47;7309569;39;20249;31
2024/01/24 04:37:52;;;;;;;4.10;1.60;;;;;;;11.60;96.14;99768.00;7316187;39;20271;31
2024/01/24 04:43:12;;;;;;;3.30;1.60;;;;;;;11.67;96.13;99767.19;7294551;39;20265;31
2024/01/24 04:48:33;;;;;;;2.07;1.10;;;;;;;11.74;96.34;99748.56;7325950;39;20393;31
2024/01/24 04:54:05;;;;;;;4.57;1.60;;;;;;;11.71;96.73;99752.41;7335622;39;20484;31
2024/01/24 04:59:26;;;;;;;3.55;1.00;;;;;;;11.76;96.79;99770.00;7322428;39;20343;31
2024/01/24 05:04:47;;;;;;;3.10;1.00;;;;;;;11.88;96.39;99739.00;7363122;39;20317;31
2024/01/24 05:10:20;;;;;;;2.43;1.10;;;;;;;11.89;96.05;99724.50;7327607;39;21391;31
2024/01/24 05:15:38;;;;;;;1.97;1.00;;;;;;;11.99;96.27;99754.91;7197595;39;21296;31
2024/01/24 05:20:59;;;;;;;3.43;1.43;;;;;;;11.98;96.75;99772.97;7407158;39;20251;31
2024/01/24 05:26:30;;;;;;;2.40;1.00;;;;;;;12.02;96.69;99733.81;7380183;39;20239;31
2024/01/24 05:31:48;;;;;;;1.00;0.80;;;;;;;12.02;97.44;99725.72;7324545;39;20244;31
2024/01/24 05:37:09;;;;;;;1.25;0.90;;;;;;;12.01;97.95;99726.75;7297015;39;20241;31
2024/01/24 05:42:42;;;;;;;1.00;0.80;;;;;;;11.99;98.75;99752.22;7255280;40;20477;31
2024/01/24 05:48:18;;;;;;;0.70;0.70;;;;;;;11.94;99.33;99741.87;7252658;40;20324;31
2024/01/24 05:53:35;;;;;;;0.80;0.73;;;;;;;11.95;100.00;99770.59;7325883;39;20248;31
2024/01/24 05:59:09;;;;;;;0.93;0.83;;;;;;;11.91;100.00;99744.94;7339118;39;21395;31
2024/01/24 06:04:43;;;;;;;0.67;0.57;;;;;;;11.90;100.00;99732.41;7304186;39;21407;31
2024/01/24 06:10:05;;;;;;;0.83;0.60;;;;;;;11.89;100.00;99711.00;7319038;39;20245;31
2024/01/24 06:15:40;;;;;;;0.80;0.80;;;;;;;11.88;100.00;99728.19;7255039;40;20305;31
2024/01/24 06:21:15;;;;;;;2.67;0.80;;;;;;;11.87;100.00;99703.03;7270452;39;20319;31
2024/01/24 06:26:51;;;;;;;1.50;1.00;;;;;;;11.87;100.00;99689.53;7295137;39;20376;31
2024/01/24 06:32:27;;;;;;;0.60;0.50;;;;;;;11.88;100.00;99739.00;7269707;39;20471;31
2024/01/24 06:38:01;;;;;;;0.80;0.80;;;;;;;11.98;100.00;99735.16;7286835;40;20378;31
2024/01/24 06:43:30;;;;;;;3.07;1.43;;;;;;;12.00;100.00;99718.78;7286541;40;20599;31
2024/01/24 06:49:06;;;;;;;1.13;1.00;;;;;;;11.97;100.00;99717.28;7296405;39;20303;31
2024/01/24 06:54:41;;;;;;;1.23;0.70;;;;;;;12.00;100.00;99705.28;7305512;39;20275;31
2024/01/24 07:05:20;;;;;;;1.47;0.90;;;;;;;12.04;100.00;99718.31;7306681;39;20258;31
2024/01/24 07:10:55;;;;;;;1.10;1.00;;;;;;;12.07;100.00;99722.53;7278618;39;20241;31
2024/01/24 07:16:13;;;;;;;1.10;0.80;;;;;;;12.14;100.00;99746.03;7263580;40;20246;31
2024/01/24 07:21:45;;;;;;;1.30;0.90;;;;;;;12.10;100.00;99712.25;7311413;39;20344;31
2024/01/24 07:27:05;;;;;;;0.70;0.70;;;;;;;12.15;100.00;99730.69;7246059;40;20404;31
2024/01/24 07:32:41;;;;;;;0.50;0.50;;;;;;;12.15;100.00;99755.81;7227112;39;20254;31
2024/01/24 07:38:15;;;;;;;0.50;0.50;;;;;;;12.17;100.00;99756.53;7268329;39;20360;31
2024/01/24 07:43:50;;;;;;;1.50;1.00;;;;;;;12.20;100.00;99766.16;7317017;39;20248;31
2024/01/24 07:49:10;;;;;;;0.77;0.77;;;;;;;12.21;100.00;99751.63;7307634;39;20279;31
2024/01/24 07:59:48;;;;;;;1.53;1.40;;;;;;;12.22;100.00;99780.34;7313056;39;20255;31
2024/01/24 08:05:23;;;;;;;6.35;4.60;;;;;;;12.19;100.00;99778.00;7275818;39;20283;31
2024/01/24 08:10:43;;;;;;;9.00;4.45;;;;;;;12.24;100.00;99764.84;7298811;39;20276;31
2024/01/24 08:16:21;;;;;;;9.97;5.90;;;;;;;12.22;100.00;99757.87;7322805;39;20270;31
2024/01/24 08:21:35;;;;;;;9.80;4.27;;;;;;;12.30;100.00;99780.37;7264793;40;21330;31
2024/01/24 08:27:11;;;;;;;7.00;3.57;;;;;;;12.29;100.00;99785.94;7333768;39;20258;31
2024/01/24 08:32:47;;;;;;;10.75;5.55;;;;;;;12.26;100.00;99795.25;7294475;39;20306;31
2024/01/24 08:38:22;;;;;;;14.07;8.30;;;;;;;12.23;100.00;99792.88;7271149;39;20264;31
2024/01/24 08:43:39;;;;;;;7.70;4.70;;;;;;;12.24;100.00;99808.09;7267138;40;20311;31
2024/01/24 08:49:16;;;;;;;3.83;3.43;;;;;;;12.23;100.00;99841.53;7287061;39;20312;31
2024/01/24 08:54:51;;;;;;;1.63;1.23;;;;;;;12.23;100.00;99824.44;7277961;39;20311;31
2024/01/24 09:00:27;;;;;;;1.43;1.33;;;;;;;12.23;100.00;99846.06;7266926;39;20256;31
2024/01/24 09:06:02;;;;;;;0.90;0.90;;;;;;;12.23;100.00;99863.13;7197123;40;20247;31
2024/01/24 09:11:35;;;;;;;1.30;1.07;;;;;;;12.30;100.00;99898.47;7218694;39;20269;31
2024/01/24 09:17:10;;;;;;;0.80;0.80;;;;;;;12.32;100.00;99888.34;7248649;39;20256;31
2024/01/24 09:22:48;;;;;;;1.40;1.30;;;;;;;12.33;100.00;99882.75;7237714;40;20348;31
2024/01/24 09:28:10;;;;;;;0.90;0.90;;;;;;;12.34;100.00;99892.56;7243892;40;20235;31
2024/01/24 09:33:28;;;;;;;1.70;1.60;;;;;;;12.39;100.00;99901.06;7225621;40;20235;31
2024/01/24 09:39:05;;;;;;;1.30;1.20;;;;;;;12.38;100.00;99910.16;7255350;40;20240;31
2024/01/24 09:44:40;;;;;;;1.13;1.03;;;;;;;12.36;100.00;99943.78;7311024;39;20252;31
2024/01/24 09:50:16;;;;;;;1.83;1.10;;;;;;;12.31;100.00;99952.38;7258721;40;20245;31
2024/01/24 09:55:50;;;;;;;0.80;0.70;;;;;;;12.29;100.00;99948.97;7255832;40;20563;31
2024/01/24 10:01:25;;;;;;;2.83;1.17;;;;;;;12.31;100.00;99943.41;7206871;40;20277;31
2024/01/24 10:12:05;;;;;;;1.50;1.10;;;;;;;12.35;100.00;99998.88;7270575;39;21196;31
2024/01/24 10:22:26;;;;;;;1.97;1.40;;;;;;;12.40;100.00;99972.22;7327257;39;22489;31
2024/01/24 10:28:02;;;;;;;1.43;1.00;;;;;;;12.38;100.00;99960.69;7338965;39;20259;31
2024/01/24 10:33:37;;;;;;;1.25;0.80;;;;;;;12.43;100.00;99967.31;7303843;39;20251;31
2024/01/24 10:39:12;;;;;;;2.00;1.00;;;;;;;12.44;100.00;99976.28;7273462;40;20268;31
2024/01/24 10:49:49;;;;;;;1.40;1.00;;;;;;;12.71;100.00;99996.91;7213328;40;21264;31
2024/01/24 11:00:29;;;;;;;1.40;0.97;;;;;;;12.84;99.10;99978.37;7364461;39;20311;31
2024/01/24 11:06:06;;;;;;;1.80;0.90;;;;;;;12.85;97.60;99980.06;7384516;39;20259;31
2024/01/24 11:11:37;;;;;;;1.60;1.00;;;;;;;12.94;97.75;99962.87;7298884;39;20252;31
2024/01/24 11:17:12;;;;;;;2.60;1.53;;;;;;;12.98;95.10;99964.22;7298215;40;20242;31
2024/01/24 11:22:45;;;;;;;1.37;0.90;;;;;;;12.99;93.81;99946.97;7300741;39;20489;31
2024/01/24 11:28:17;;;;;;;2.65;1.10;;;;;;;13.08;92.61;99940.56;7316703;39;20248;31
2024/01/24 11:34:00;;;;;;;1.50;0.90;;;;;;;13.16;93.04;99945.22;7329114;39;20268;31
2024/01/24 11:39:49;;;;;;;3.60;1.73;;;;;;;13.29;90.93;99942.88;7248278;40;20397;31
2024/01/24 11:45:28;;;;;;;2.30;1.20;;;;;;;13.32;87.14;99956.94;7288323;39;20241;31
2024/01/24 11:51:01;;;;;;;3.40;1.20;;;;;;;13.37;84.95;99973.53;6946235;40;21188;31
2024/01/24 11:56:38;;;;;;;5.13;1.60;;;;;;;13.47;84.05;99955.25;7219979;40;20351;31
2024/01/24 12:01:59;;;;;;;7.30;1.80;;;;;;;13.58;82.60;99964.94;7243806;40;20262;31
2024/01/24 12:12:36;;;;;;;6.53;2.07;;;;;;;13.60;78.54;99964.78;7349500;39;20274;31
2024/01/24 12:18:16;;;;;;;8.77;2.50;;;;;;;13.59;77.59;99974.75;7336616;39;21434;31
2024/01/24 12:23:50;;;;;;;6.90;1.65;;;;;;;13.63;75.01;99945.47;7320094;39;20256;31
2024/01/24 12:29:27;;;;;;;6.65;2.40;;;;;;;13.64;75.76;99975.09;7362795;39;20239;31
2024/01/24 12:35:03;;;;;;;9.73;2.33;;;;;;;13.67;74.25;99982.03;7344374;39;20244;31
2024/01/24 12:40:23;;;;;;;5.40;1.90;;;;;;;13.62;73.08;100019.63;7279716;39;20264;31
2024/01/24 12:45:59;;;;;;;8.00;2.30;;;;;;;13.58;74.01;100020.97;7316921;39;20261;31
2024/01/24 12:51:37;;;;;;;9.90;2.30;;;;;;;13.58;74.57;100024.53;7210265;40;20257;31
2024/01/24 12:56:55;;;;;;;7.33;2.10;;;;;;;13.62;74.21;100004.22;7226576;40;20239;31
2024/01/24 13:02:31;;;;;;;6.73;2.30;;;;;;;13.56;73.37;100006.75;7245229;40;20260;31
2024/01/24 13:07:48;;;;;;;9.17;2.50;;;;;;;13.54;75.84;100001.50;7276403;40;20253;31
2024/01/24 13:13:35;;;;;;;8.53;2.50;;;;;;;13.54;76.08;99994.22;7309904;39;20311;31
2024/01/24 13:24:14;;;;;;;10.80;3.15;;;;;;;13.51;74.26;100007.25;7287702;39;20284;31
2024/01/24 13:34:54;;;;;;;15.26;2.76;;;;;;;13.37;72.38;100030.41;7362259;39;20729;31
2024/01/24 13:45:32;;;;;;;12.00;3.50;;;;;;;13.28;70.83;100038.66;7337332;39;20408;31
2024/01/24 13:50:52;;;;;;;11.90;3.03;;;;;;;13.28;70.55;100039.50;7297618;39;20245;31
2024/01/24 13:56:12;;;;;;;13.50;3.85;;;;;;;13.28;69.89;100060.31;7279176;39;20240;31
2024/01/24 14:01:48;;;;;;;9.00;3.20;;;;;;;13.19;70.27;100067.53;7298153;40;20236;31
2024/01/24 14:07:20;;;;;;;14.25;3.80;;;;;;;13.16;69.92;100100.34;7293963;39;20354;31
2024/01/24 14:12:40;;;;;;;9.93;3.13;;;;;;;13.07;69.50;100095.88;7308300;39;20336;31
2024/01/24 14:18:16;;;;;;;12.63;3.10;;;;;;;12.95;69.43;100113.38;7320008;39;21355;31
2024/01/24 14:23:51;;;;;;;10.73;3.43;;;;;;;12.90;68.96;100126.56;7284447;40;20385;31
2024/01/24 14:29:11;;;;;;;13.00;3.40;;;;;;;12.86;70.21;100117.03;7247124;40;20261;31
2024/01/24 14:34:48;;;;;;;12.93;3.40;;;;;;;12.84;70.52;100141.56;7309366;39;20259;31
2024/01/24 14:40:09;;;;;;;9.70;2.70;;;;;;;12.79;69.97;100167.38;7260992;40;20330;31
2024/01/24 14:45:41;;;;;;;9.20;2.70;;;;;;;12.71;69.23;100181.69;7297746;39;20953;31
2024/01/24 14:51:14;;;;;;;13.07;2.80;;;;;;;12.66;69.46;100167.78;7254544;40;21291;31
2024/01/24 14:56:37;;;;;;;14.90;3.30;;;;;;;12.62;70.02;100186.19;7262839;40;21429;31
2024/01/24 15:02:07;;;;;;;11.90;2.90;;;;;;;12.56;69.31;100192.19;7261696;40;20462;31
2024/01/24 15:07:43;;;;;;;14.93;4.30;;;;;;;12.48;70.06;100200.25;7240748;40;20451;31
2024/01/24 15:13:18;;;;;;;11.93;3.13;;;;;;;12.44;70.06;100204.25;7230858;40;20326;31
2024/01/24 15:18:35;;;;;;;13.47;3.37;;;;;;;12.44;70.39;100209.66;7289907;39;20241;31
2024/01/24 15:24:11;;;;;;;14.40;3.53;;;;;;;12.40;71.06;100200.16;7345881;39;20862;31
2024/01/24 15:29:31;;;;;;;11.60;3.10;;;;;;;12.39;70.23;100220.09;7292044;39;20245;31
2024/01/24 15:34:51;;;;;;;12.35;2.80;;;;;;;12.39;70.78;100219.22;7280296;39;20276;31
2024/01/24 15:40:24;;;;;;;18.13;3.83;;;;;;;12.32;71.29;100229.81;7288643;39;21154;31
2024/01/24 15:45:40;;;;;;;10.83;3.27;;;;;;;12.34;71.41;100257.53;7288922;39;21039;31
2024/01/24 15:50:59;;;;;;;14.50;3.80;;;;;;;12.26;70.71;100264.72;7345836;39;21017;31
2024/01/24 15:56:35;;;;;;;13.13;4.23;;;;;;;12.17;71.29;100256.50;7347718;39;20313;31
2024/01/24 16:01:55;;;;;;;13.13;4.20;;;;;;;12.15;71.17;100282.00;7279896;39;20248;31
2024/01/24 16:07:28;;;;;;;13.87;4.53;;;;;;;12.08;71.40;100268.22;7281853;39;20245;31
2024/01/24 16:13:04;;;;;;;13.10;4.05;;;;;;;12.05;72.00;100281.19;7267235;40;20454;31
2024/01/24 16:18:24;;;;;;;15.30;3.90;;;;;;;12.00;71.26;100303.25;7310838;39;20349;31
2024/01/24 16:23:41;;;;;;;13.63;4.40;;;;;;;12.03;72.46;100315.59;7316220;39;20234;31
2024/01/24 16:29:15;;;;;;;18.40;5.40;;;;;;;11.99;72.21;100330.41;7326005;39;21170;31
2024/01/24 16:34:33;;;;;;;14.73;5.50;;;;;;;11.98;73.13;100350.34;7289767;39;21382;31
2024/01/24 16:39:52;;;;;;;22.23;9.40;;;;;;;11.94;72.55;100343.50;7299626;39;20245;31
2024/01/24 16:45:29;;;;;;;13.65;4.90;;;;;;;11.83;72.59;100352.66;7292519;39;20256;31
2024/01/24 16:50:49;;;;;;;12.77;4.23;;;;;;;11.79;71.37;100361.19;7330412;39;20345;31
2024/01/24 16:56:09;;;;;;;13.10;3.70;;;;;;;11.72;71.19;100350.97;7365637;39;21196;31
2024/01/24 17:01:45;;;;;;;13.75;3.70;;;;;;;11.61;70.89;100369.16;7318846;39;21419;31
2024/01/24 17:12:21;;;;;;;12.40;3.90;;;;;;;11.52;71.17;100365.47;7305204;39;22702;31
2024/01/24 17:18:01;;;;;;;13.80;4.90;;;;;;;11.52;71.94;100375.41;7345260;39;21805;31
2024/01/24 17:23:19;;;;;;;14.63;4.73;;;;;;;11.51;71.96;100393.47;7292806;39;21425;31
2024/01/24 17:28:37;;;;;;;10.90;3.60;;;;;;;11.47;72.32;100383.94;7339798;39;20261;31
2024/01/24 17:34:11;;;;;;;14.87;3.87;;;;;;;11.40;72.50;100363.06;7308232;39;20245;31
2024/01/24 17:39:31;;;;;;;16.20;3.90;;;;;;;11.37;72.75;100339.91;7237875;40;20233;31
2024/01/24 17:45:05;;;;;;;12.17;3.50;;;;;;;11.34;73.53;100358.22;7232942;40;20319;31
2024/01/24 17:50:41;;;;;;;13.20;3.80;;;;;;;11.26;73.65;100369.75;7221883;40;20297;31
2024/01/24 17:56:16;;;;;;;10.83;3.40;;;;;;;11.23;73.60;100370.03;7198839;40;21380;31
2024/01/24 18:01:38;;;;;;;12.20;3.80;;;;;;;11.22;73.97;100392.63;7215241;40;20290;31
2024/01/24 18:07:09;;;;;;;16.40;3.80;;;;;;;11.14;74.16;100400.56;7245765;39;20249;31
2024/01/24 18:12:44;;;;;;;15.00;4.00;;;;;;;11.09;74.26;100403.69;7233138;39;20256;31
2024/01/24 18:18:06;;;;;;;13.60;3.40;;;;;;;11.05;74.80;100398.72;7216780;40;20238;31
2024/01/24 18:23:43;;;;;;;12.65;3.40;;;;;;;10.99;74.99;100402.81;7221899;40;20250;31
2024/01/24 18:29:03;;;;;;;13.77;3.77;;;;;;;10.95;74.94;100411.34;7071538;39;20237;31
2024/01/24 18:34:21;;;;;;;22.13;4.97;;;;;;;10.94;75.89;100423.09;7287815;39;21654;31
2024/01/24 18:39:54;;;;;;;17.67;4.20;;;;;;;10.85;75.36;100422.94;7297983;39;20247;31
2024/01/24 18:45:29;;;;;;;15.85;4.60;;;;;;;10.80;75.60;100441.38;7256940;40;20276;31
2024/01/24 18:51:04;;;;;;;18.70;4.30;;;;;;;10.77;75.59;100441.66;7248796;40;21540;31
2024/01/24 18:56:40;;;;;;;17.40;4.70;;;;;;;10.71;75.58;100439.50;7308914;39;21571;31
2024/01/24 19:02:01;;;;;;;14.90;4.23;;;;;;;10.70;76.20;100432.44;7284077;39;20537;31
2024/01/24 19:07:36;;;;;;;17.03;4.23;;;;;;;10.66;76.42;100424.75;7325051;39;20340;31
2024/01/24 19:13:11;;;;;;;19.43;4.30;;;;;;;10.63;76.53;100442.03;7296765;39;20735;31
2024/01/24 19:18:32;;;;;;;15.90;3.87;;;;;;;10.66;76.72;100438.25;7232612;40;20390;31
2024/01/24 19:23:53;;;;;;;19.10;4.00;;;;;;;10.59;76.33;100427.13;7242354;40;20313;31
2024/01/24 19:29:30;;;;;;;15.17;3.83;;;;;;;10.58;76.57;100405.69;7209986;40;20464;31
2024/01/24 19:35:05;;;;;;;21.50;4.80;;;;;;;10.58;77.05;100408.38;7206274;40;20261;31
2024/01/24 19:40:40;;;;;;;17.30;4.00;;;;;;;10.58;76.93;100433.50;7267489;40;20373;31
2024/01/24 19:46:16;;;;;;;20.60;4.30;;;;;;;10.52;77.05;100420.59;7258168;40;20234;31
2024/01/24 19:51:48;;;;;;;16.20;4.20;;;;;;;10.51;77.11;100418.88;7243711;39;20374;31
2024/01/24 19:57:23;;;;;;;15.80;3.93;;;;;;;10.50;77.00;100419.84;7302115;39;20238;31
2024/01/24 20:02:59;;;;;;;17.60;4.10;;;;;;;10.51;77.83;100416.19;7250554;40;20282;31
2024/01/24 20:08:19;;;;;;;18.43;4.30;;;;;;;10.55;77.73;100414.06;7250159;39;20227;31
2024/01/24 20:13:40;;;;;;;19.23;4.40;;;;;;;10.53;77.92;100398.00;7245357;40;20238;31
2024/01/24 20:19:17;;;;;;;20.23;4.80;;;;;;;10.49;78.37;100407.34;7263957;39;20248;31
2024/01/24 20:24:49;;;;;;;15.25;4.25;;;;;;;10.51;78.01;100397.31;7275793;39;20256;31
2024/01/24 20:30:10;;;;;;;14.80;3.70;;;;;;;10.53;78.39;100414.19;7295273;39;20419;31
2024/01/24 20:35:44;;;;;;;17.30;4.45;;;;;;;10.50;78.70;100408.22;7307421;39;20228;31
2024/01/24 20:40:49;;;;;;;17.00;5.30;;;;;;;10.51;78.67;100429.66;7300060;39;20525;31
2024/01/24 20:46:25;;;;;;;20.00;6.07;;;;;;;10.45;79.13;100424.78;7254496;39;20282;31
2024/01/24 20:52:01;;;;;;;19.20;6.20;;;;;;;10.45;79.40;100435.56;7284369;39;20300;31
2024/01/24 20:57:21;;;;;;;24.63;6.43;;;;;;;10.46;79.85;100447.22;7272785;40;20234;31
2024/01/24 21:02:57;;;;;;;21.57;5.93;;;;;;;10.40;79.95;100435.12;7273895;40;20255;31
2024/01/24 21:08:35;;;;;;;25.03;6.13;;;;;;;10.36;81.02;100417.53;7245969;40;20253;31
2024/01/24 21:14:09;;;;;;;51.03;21.87;;;;;;;10.32;81.74;100403.47;7255290;40;20249;31
2024/01/24 21:19:29;;;;;;;29.60;10.95;;;;;;;10.33;82.34;100393.53;7268101;39;20241;31
2024/01/24 21:25:05;;;;;;;32.25;8.88;;;;;;;10.31;82.12;100403.63;7268209;40;20242;31
2024/01/24 21:30:40;;;;;;;24.05;7.40;;;;;;;10.32;82.36;100390.00;7264926;39;20245;31
2024/01/24 21:36:00;;;;;;;19.35;4.60;;;;;;;10.34;82.75;100398.81;7283616;40;20248;31
2024/01/24 21:41:37;;;;;;;21.35;4.85;;;;;;;10.34;82.73;100392.56;7290629;39;20267;31
2024/01/24 21:52:18;;;;;;;19.07;4.83;;;;;;;10.37;83.07;100382.38;7321715;39;20272;31
2024/01/24 22:02:54;;;;;;;16.20;3.75;;;;;;;10.44;82.56;100396.16;7379484;39;21260;31
2024/01/24 22:13:20;;;;;;;20.05;5.20;;;;;;;10.53;82.42;100421.44;7374233;39;20820;31
2024/01/24 22:23:57;;;;;;;20.27;4.30;;;;;;;10.54;82.95;100412.34;7368693;39;21253;31
2024/01/24 22:29:17;;;;;;;17.50;4.87;;;;;;;10.56;82.67;100413.94;7316403;39;20335;31
2024/01/24 22:39:55;;;;;;;20.55;4.25;;;;;;;10.52;82.60;100396.31;7362205;39;20270;31
2024/01/24 22:45:13;;;;;;;24.00;5.10;;;;;;;10.56;82.85;100411.25;7293994;39;20396;31
2024/01/24 22:50:47;;;;;;;16.60;4.50;;;;;;;10.53;82.67;100414.19;7388215;39;20319;31
2024/01/24 22:56:24;;;;;;;14.23;4.47;;;;;;;10.53;82.66;100405.28;7347112;39;20724;31
2024/01/24 23:01:58;;;;;;;21.40;4.73;;;;;;;10.55;83.12;100411.38;7293319;39;20337;31
2024/01/24 23:07:19;;;;;;;21.83;5.00;;;;;;;10.53;82.95;100422.28;7275138;40;20241;31
2024/01/24 23:12:55;;;;;;;16.30;4.50;;;;;;;10.51;83.14;100420.72;7272222;40;20258;31
2024/01/24 23:18:17;;;;;;;22.00;4.50;;;;;;;10.52;82.90;100434.06;7295768;39;20277;31
2024/01/24 23:28:54;;;;;;;21.96;4.72;;;;;;;10.46;83.38;100426.50;7358930;39;21328;31
2024/01/24 23:39:15;;;;;;;18.73;4.47;;;;;;;10.48;83.13;100410.22;7291722;39;21166;31
2024/01/24 23:45:04;;;;;;;20.63;5.03;;;;;;;10.39;83.47;100419.97;7336455;39;21048;31
2024/01/24 23:50:22;;;;;;;18.30;4.30;;;;;;;10.42;83.14;100417.00;7266081;40;20267;31
2024/01/24 23:55:57;;;;;;;14.20;3.60;;;;;;;10.40;83.46;100409.03;7243006;40;20220;31
